sensor_id;sensor_type;location;lat;lon;timestamp;P1;durP1;ratioP1;P2;durP2;ratioP2
31910;SDS011;18457;52.432;16.914;2023-03-11T00:00:02;28.70;;;13.80;;
31910;SDS011;18457;52.432;16.914;2023-03-11T00:02:58;27.50;;;12.80;;
31910;SDS011;18457;52.432;16.914;2023-03-11T00:05:32;27.40;;;12.40;;
31910;SDS011;18457;52.432;16.914;2023-03-11T00:08:07;30.90;;;15.00;;
31910;SDS011;18457;52.432;16.914;2023-03-11T00:10:42;28.00;;;12.70;;
31910;SDS011;18457;52.432;16.914;2023-03-11T00:13:15;25.00;;;12.70;;
31910;SDS011;18457;52.432;16.914;2023-03-11T00:15:48;27.40;;;12.60;;
31910;SDS011;18457;52.432;16.914;2023-03-11T00:18:24;20.80;;;11.80;;
31910;SDS011;18457;52.432;16.914;2023-03-11T00:20:59;19.80;;;11.20;;
31910;SDS011;18457;52.432;16.914;2023-03-11T00:23:32;23.00;;;12.30;;
31910;SDS011;18457;52.432;16.914;2023-03-11T00:26:04;24.90;;;12.60;;
31910;SDS011;18457;52.432;16.914;2023-03-11T00:28:36;26.50;;;11.20;;
31910;SDS011;18457;52.432;16.914;2023-03-11T00:31:11;25.80;;;13.30;;
31910;SDS011;18457;52.432;16.914;2023-03-11T00:33:43;23.10;;;12.50;;
31910;SDS011;18457;52.432;16.914;2023-03-11T00:36:19;22.70;;;11.80;;
31910;SDS011;18457;52.432;16.914;2023-03-11T00:38:56;21.10;;;11.70;;
31910;SDS011;18457;52.432;16.914;2023-03-11T00:41:34;17.80;;;10.60;;
31910;SDS011;18457;52.432;16.914;2023-03-11T00:44:07;20.80;;;11.60;;
31910;SDS011;18457;52.432;16.914;2023-03-11T00:46:40;18.60;;;10.50;;
31910;SDS011;18457;52.432;16.914;2023-03-11T00:49:12;20.50;;;11.00;;
31910;SDS011;18457;52.432;16.914;2023-03-11T00:51:44;19.90;;;11.10;;
31910;SDS011;18457;52.432;16.914;2023-03-11T00:54:16;21.10;;;11.70;;
31910;SDS011;18457;52.432;16.914;2023-03-11T00:56:48;18.40;;;10.50;;
31910;SDS011;18457;52.432;16.914;2023-03-11T00:59:20;18.00;;;10.60;;
31910;SDS011;18457;52.432;16.914;2023-03-11T01:01:53;17.50;;;9.80;;
31910;SDS011;18457;52.432;16.914;2023-03-11T01:04:25;17.20;;;10.00;;
31910;SDS011;18457;52.432;16.914;2023-03-11T01:06:57;19.00;;;10.20;;
31910;SDS011;18457;52.432;16.914;2023-03-11T01:09:29;17.30;;;10.40;;
31910;SDS011;18457;52.432;16.914;2023-03-11T01:12:02;16.50;;;10.40;;
31910;SDS011;18457;52.432;16.914;2023-03-11T01:14:35;16.40;;;9.60;;
31910;SDS011;18457;52.432;16.914;2023-03-11T01:17:09;20.50;;;11.30;;
31910;SDS011;18457;52.432;16.914;2023-03-11T01:19:43;15.90;;;9.90;;
31910;SDS011;18457;52.432;16.914;2023-03-11T01:22:16;18.10;;;10.70;;
31910;SDS011;18457;52.432;16.914;2023-03-11T01:24:48;19.40;;;10.50;;
31910;SDS011;18457;52.432;16.914;2023-03-11T01:27:20;17.90;;;10.90;;
31910;SDS011;18457;52.432;16.914;2023-03-11T01:29:52;19.20;;;9.60;;
31910;SDS011;18457;52.432;16.914;2023-03-11T01:32:24;20.00;;;10.30;;
31910;SDS011;18457;52.432;16.914;2023-03-11T01:34:56;16.00;;;7.10;;
31910;SDS011;18457;52.432;16.914;2023-03-11T01:37:28;12.90;;;7.80;;
31910;SDS011;18457;52.432;16.914;2023-03-11T01:40:01;18.10;;;10.10;;
31910;SDS011;18457;52.432;16.914;2023-03-11T01:42:34;19.00;;;10.10;;
31910;SDS011;18457;52.432;16.914;2023-03-11T01:45:12;17.90;;;10.70;;
31910;SDS011;18457;52.432;16.914;2023-03-11T01:48:00;17.70;;;10.60;;
31910;SDS011;18457;52.432;16.914;2023-03-11T01:50:33;18.50;;;9.70;;
31910;SDS011;18457;52.432;16.914;2023-03-11T01:53:09;18.30;;;11.00;;
31910;SDS011;18457;52.432;16.914;2023-03-11T01:55:42;22.40;;;10.50;;
31910;SDS011;18457;52.432;16.914;2023-03-11T01:58:17;20.80;;;10.70;;
31910;SDS011;18457;52.432;16.914;2023-03-11T02:00:53;20.70;;;10.30;;
31910;SDS011;18457;52.432;16.914;2023-03-11T02:03:28;16.50;;;10.20;;
31910;SDS011;18457;52.432;16.914;2023-03-11T02:06:03;16.70;;;9.70;;
31910;SDS011;18457;52.432;16.914;2023-03-11T02:08:38;19.00;;;11.10;;
31910;SDS011;18457;52.432;16.914;2023-03-11T02:11:13;21.20;;;11.60;;
31910;SDS011;18457;52.432;16.914;2023-03-11T02:13:49;19.70;;;11.40;;
31910;SDS011;18457;52.432;16.914;2023-03-11T02:16:26;21.00;;;11.60;;
31910;SDS011;18457;52.432;16.914;2023-03-11T02:18:59;22.50;;;12.20;;
31910;SDS011;18457;52.432;16.914;2023-03-11T02:21:37;19.40;;;12.10;;
31910;SDS011;18457;52.432;16.914;2023-03-11T02:24:11;22.40;;;12.40;;
31910;SDS011;18457;52.432;16.914;2023-03-11T02:26:52;22.50;;;11.80;;
31910;SDS011;18457;52.432;16.914;2023-03-11T02:29:27;22.30;;;13.40;;
31910;SDS011;18457;52.432;16.914;2023-03-11T02:32:02;22.10;;;12.50;;
31910;SDS011;18457;52.432;16.914;2023-03-11T02:34:39;25.00;;;13.00;;
31910;SDS011;18457;52.432;16.914;2023-03-11T02:37:11;24.10;;;12.80;;
31910;SDS011;18457;52.432;16.914;2023-03-11T02:39:53;26.30;;;13.20;;
31910;SDS011;18457;52.432;16.914;2023-03-11T02:42:45;27.70;;;14.30;;
31910;SDS011;18457;52.432;16.914;2023-03-11T02:45:18;23.40;;;13.00;;
31910;SDS011;18457;52.432;16.914;2023-03-11T02:47:54;38.20;;;19.40;;
31910;SDS011;18457;52.432;16.914;2023-03-11T02:50:28;47.10;;;22.60;;
31910;SDS011;18457;52.432;16.914;2023-03-11T02:53:05;55.30;;;26.40;;
31910;SDS011;18457;52.432;16.914;2023-03-11T02:55:38;54.60;;;25.50;;
31910;SDS011;18457;52.432;16.914;2023-03-11T02:58:10;56.40;;;26.00;;
31910;SDS011;18457;52.432;16.914;2023-03-11T03:00:42;42.40;;;19.70;;
31910;SDS011;18457;52.432;16.914;2023-03-11T03:03:15;53.20;;;26.20;;
31910;SDS011;18457;52.432;16.914;2023-03-11T03:05:48;50.50;;;24.90;;
31910;SDS011;18457;52.432;16.914;2023-03-11T03:08:20;46.80;;;23.30;;
31910;SDS011;18457;52.432;16.914;2023-03-11T03:10:52;41.80;;;21.30;;
31910;SDS011;18457;52.432;16.914;2023-03-11T03:13:25;45.90;;;23.20;;
31910;SDS011;18457;52.432;16.914;2023-03-11T03:15:57;45.20;;;22.00;;
31910;SDS011;18457;52.432;16.914;2023-03-11T03:18:30;42.60;;;22.10;;
31910;SDS011;18457;52.432;16.914;2023-03-11T03:21:02;43.50;;;22.40;;
31910;SDS011;18457;52.432;16.914;2023-03-11T03:23:36;46.80;;;21.70;;
31910;SDS011;18457;52.432;16.914;2023-03-11T03:26:11;38.80;;;20.80;;
31910;SDS011;18457;52.432;16.914;2023-03-11T03:28:45;36.10;;;18.70;;
31910;SDS011;18457;52.432;16.914;2023-03-11T03:31:17;33.40;;;17.50;;
31910;SDS011;18457;52.432;16.914;2023-03-11T03:33:50;36.90;;;17.20;;
31910;SDS011;18457;52.432;16.914;2023-03-11T03:36:23;35.70;;;17.30;;
31910;SDS011;18457;52.432;16.914;2023-03-11T03:38:58;36.30;;;18.10;;
31910;SDS011;18457;52.432;16.914;2023-03-11T03:41:33;32.60;;;16.40;;
31910;SDS011;18457;52.432;16.914;2023-03-11T03:44:07;37.70;;;17.00;;
31910;SDS011;18457;52.432;16.914;2023-03-11T03:46:40;32.30;;;15.40;;
31910;SDS011;18457;52.432;16.914;2023-03-11T03:49:13;27.50;;;14.70;;
31910;SDS011;18457;52.432;16.914;2023-03-11T03:54:23;26.90;;;13.30;;
31910;SDS011;18457;52.432;16.914;2023-03-11T03:56:56;24.70;;;12.20;;
31910;SDS011;18457;52.432;16.914;2023-03-11T03:59:28;22.80;;;11.30;;
31910;SDS011;18457;52.432;16.914;2023-03-11T04:02:01;19.60;;;10.80;;
31910;SDS011;18457;52.432;16.914;2023-03-11T04:04:33;18.00;;;9.40;;
31910;SDS011;18457;52.432;16.914;2023-03-11T04:07:05;15.60;;;8.10;;
31910;SDS011;18457;52.432;16.914;2023-03-11T04:09:38;16.20;;;7.50;;
31910;SDS011;18457;52.432;16.914;2023-03-11T04:12:13;11.90;;;7.30;;
31910;SDS011;18457;52.432;16.914;2023-03-11T04:14:47;15.30;;;7.60;;
31910;SDS011;18457;52.432;16.914;2023-03-11T04:17:19;7.60;;;5.10;;
31910;SDS011;18457;52.432;16.914;2023-03-11T04:19:51;14.60;;;6.60;;
31910;SDS011;18457;52.432;16.914;2023-03-11T04:22:23;11.30;;;5.90;;
31910;SDS011;18457;52.432;16.914;2023-03-11T04:24:55;13.60;;;6.80;;
31910;SDS011;18457;52.432;16.914;2023-03-11T04:27:27;12.80;;;6.60;;
31910;SDS011;18457;52.432;16.914;2023-03-11T04:32:30;11.60;;;6.00;;
31910;SDS011;18457;52.432;16.914;2023-03-11T04:35:02;8.50;;;4.60;;
31910;SDS011;18457;52.432;16.914;2023-03-11T04:37:35;13.20;;;7.50;;
31910;SDS011;18457;52.432;16.914;2023-03-11T04:40:08;10.40;;;5.80;;
31910;SDS011;18457;52.432;16.914;2023-03-11T04:42:41;9.70;;;5.70;;
31910;SDS011;18457;52.432;16.914;2023-03-11T04:45:13;11.10;;;5.50;;
31910;SDS011;18457;52.432;16.914;2023-03-11T04:47:47;7.60;;;5.30;;
31910;SDS011;18457;52.432;16.914;2023-03-11T04:50:20;8.00;;;5.00;;
31910;SDS011;18457;52.432;16.914;2023-03-11T04:55:24;9.40;;;5.40;;
31910;SDS011;18457;52.432;16.914;2023-03-11T04:57:56;8.20;;;5.20;;
31910;SDS011;18457;52.432;16.914;2023-03-11T05:00:29;10.90;;;5.40;;
31910;SDS011;18457;52.432;16.914;2023-03-11T05:03:05;9.70;;;6.10;;
31910;SDS011;18457;52.432;16.914;2023-03-11T05:05:37;13.40;;;6.10;;
31910;SDS011;18457;52.432;16.914;2023-03-11T05:08:10;14.00;;;6.90;;
31910;SDS011;18457;52.432;16.914;2023-03-11T05:10:42;12.20;;;6.70;;
31910;SDS011;18457;52.432;16.914;2023-03-11T05:13:14;14.40;;;7.30;;
31910;SDS011;18457;52.432;16.914;2023-03-11T05:15:46;16.40;;;7.70;;
31910;SDS011;18457;52.432;16.914;2023-03-11T05:18:19;13.30;;;7.20;;
31910;SDS011;18457;52.432;16.914;2023-03-11T05:20:51;14.30;;;7.40;;
31910;SDS011;18457;52.432;16.914;2023-03-11T05:23:26;14.60;;;7.30;;
31910;SDS011;18457;52.432;16.914;2023-03-11T05:25:59;14.00;;;7.20;;
31910;SDS011;18457;52.432;16.914;2023-03-11T05:28:33;15.70;;;7.70;;
31910;SDS011;18457;52.432;16.914;2023-03-11T05:31:07;15.00;;;7.50;;
31910;SDS011;18457;52.432;16.914;2023-03-11T05:33:40;15.10;;;6.90;;
31910;SDS011;18457;52.432;16.914;2023-03-11T05:36:13;13.50;;;7.20;;
31910;SDS011;18457;52.432;16.914;2023-03-11T05:38:45;13.60;;;7.30;;
31910;SDS011;18457;52.432;16.914;2023-03-11T05:41:17;13.50;;;7.20;;
31910;SDS011;18457;52.432;16.914;2023-03-11T05:43:49;10.70;;;6.70;;
31910;SDS011;18457;52.432;16.914;2023-03-11T05:46:22;12.30;;;7.20;;
31910;SDS011;18457;52.432;16.914;2023-03-11T05:48:56;14.90;;;7.90;;
31910;SDS011;18457;52.432;16.914;2023-03-11T05:51:29;14.80;;;7.90;;
31910;SDS011;18457;52.432;16.914;2023-03-11T05:54:01;7.80;;;5.50;;
31910;SDS011;18457;52.432;16.914;2023-03-11T05:56:40;13.60;;;8.40;;
31910;SDS011;18457;52.432;16.914;2023-03-11T06:01:46;15.40;;;8.30;;
31910;SDS011;18457;52.432;16.914;2023-03-11T06:06:50;15.90;;;8.70;;
31910;SDS011;18457;52.432;16.914;2023-03-11T06:09:24;15.40;;;7.90;;
31910;SDS011;18457;52.432;16.914;2023-03-11T06:11:57;15.80;;;8.30;;
31910;SDS011;18457;52.432;16.914;2023-03-11T06:14:35;14.90;;;7.90;;
31910;SDS011;18457;52.432;16.914;2023-03-11T06:17:08;13.80;;;8.20;;
31910;SDS011;18457;52.432;16.914;2023-03-11T06:19:41;15.70;;;8.40;;
31910;SDS011;18457;52.432;16.914;2023-03-11T06:22:14;14.40;;;7.50;;
31910;SDS011;18457;52.432;16.914;2023-03-11T06:24:46;14.60;;;8.20;;
31910;SDS011;18457;52.432;16.914;2023-03-11T06:27:19;13.40;;;8.10;;
31910;SDS011;18457;52.432;16.914;2023-03-11T06:32:24;15.60;;;8.00;;
31910;SDS011;18457;52.432;16.914;2023-03-11T06:35:03;14.90;;;8.10;;
31910;SDS011;18457;52.432;16.914;2023-03-11T06:37:36;13.80;;;7.30;;
31910;SDS011;18457;52.432;16.914;2023-03-11T06:40:10;13.80;;;7.80;;
31910;SDS011;18457;52.432;16.914;2023-03-11T06:42:45;12.80;;;7.60;;
31910;SDS011;18457;52.432;16.914;2023-03-11T06:45:19;17.10;;;8.70;;
31910;SDS011;18457;52.432;16.914;2023-03-11T06:47:52;14.70;;;8.20;;
31910;SDS011;18457;52.432;16.914;2023-03-11T06:50:24;14.40;;;8.40;;
31910;SDS011;18457;52.432;16.914;2023-03-11T06:52:57;14.60;;;8.10;;
31910;SDS011;18457;52.432;16.914;2023-03-11T06:55:31;13.70;;;8.70;;
31910;SDS011;18457;52.432;16.914;2023-03-11T06:58:05;15.20;;;8.70;;
31910;SDS011;18457;52.432;16.914;2023-03-11T07:00:37;16.80;;;8.90;;
31910;SDS011;18457;52.432;16.914;2023-03-11T07:03:11;15.20;;;9.30;;
31910;SDS011;18457;52.432;16.914;2023-03-11T07:05:44;16.70;;;8.60;;
31910;SDS011;18457;52.432;16.914;2023-03-11T07:08:19;15.90;;;9.90;;
31910;SDS011;18457;52.432;16.914;2023-03-11T07:13:31;16.50;;;8.80;;
31910;SDS011;18457;52.432;16.914;2023-03-11T07:16:04;14.60;;;8.40;;
31910;SDS011;18457;52.432;16.914;2023-03-11T07:18:39;19.20;;;9.60;;
31910;SDS011;18457;52.432;16.914;2023-03-11T07:23:42;18.20;;;9.00;;
31910;SDS011;18457;52.432;16.914;2023-03-11T07:26:15;16.00;;;8.80;;
31910;SDS011;18457;52.432;16.914;2023-03-11T07:28:47;16.20;;;9.30;;
31910;SDS011;18457;52.432;16.914;2023-03-11T07:31:21;16.40;;;8.90;;
31910;SDS011;18457;52.432;16.914;2023-03-11T07:33:55;13.40;;;8.20;;
31910;SDS011;18457;52.432;16.914;2023-03-11T07:36:29;13.30;;;8.50;;
31910;SDS011;18457;52.432;16.914;2023-03-11T07:39:02;15.80;;;8.50;;
31910;SDS011;18457;52.432;16.914;2023-03-11T07:41:35;16.40;;;8.30;;
31910;SDS011;18457;52.432;16.914;2023-03-11T07:44:07;18.60;;;8.10;;
31910;SDS011;18457;52.432;16.914;2023-03-11T07:46:41;12.40;;;8.10;;
31910;SDS011;18457;52.432;16.914;2023-03-11T07:49:14;17.20;;;8.70;;
31910;SDS011;18457;52.432;16.914;2023-03-11T07:54:16;12.00;;;6.70;;
31910;SDS011;18457;52.432;16.914;2023-03-11T07:56:48;13.30;;;8.30;;
31910;SDS011;18457;52.432;16.914;2023-03-11T07:59:20;16.30;;;9.30;;
31910;SDS011;18457;52.432;16.914;2023-03-11T08:01:53;16.90;;;8.60;;
31910;SDS011;18457;52.432;16.914;2023-03-11T08:04:26;15.50;;;8.10;;
31910;SDS011;18457;52.432;16.914;2023-03-11T08:06:59;12.40;;;7.60;;
31910;SDS011;18457;52.432;16.914;2023-03-11T08:09:32;16.90;;;8.70;;
31910;SDS011;18457;52.432;16.914;2023-03-11T08:12:06;13.60;;;7.90;;
31910;SDS011;18457;52.432;16.914;2023-03-11T08:14:39;15.20;;;7.90;;
31910;SDS011;18457;52.432;16.914;2023-03-11T08:19:42;12.60;;;6.90;;
31910;SDS011;18457;52.432;16.914;2023-03-11T08:22:14;12.80;;;5.10;;
31910;SDS011;18457;52.432;16.914;2023-03-11T08:24:48;16.50;;;8.20;;
31910;SDS011;18457;52.432;16.914;2023-03-11T08:27:23;14.30;;;6.90;;
31910;SDS011;18457;52.432;16.914;2023-03-11T08:29:57;15.20;;;7.30;;
31910;SDS011;18457;52.432;16.914;2023-03-11T08:32:31;12.80;;;7.10;;
31910;SDS011;18457;52.432;16.914;2023-03-11T08:37:35;12.70;;;7.10;;
31910;SDS011;18457;52.432;16.914;2023-03-11T08:40:08;10.10;;;5.00;;
31910;SDS011;18457;52.432;16.914;2023-03-11T08:42:43;12.10;;;6.30;;
31910;SDS011;18457;52.432;16.914;2023-03-11T08:45:15;10.50;;;6.00;;
31910;SDS011;18457;52.432;16.914;2023-03-11T08:50:18;13.30;;;7.40;;
31910;SDS011;18457;52.432;16.914;2023-03-11T08:52:51;11.40;;;6.30;;
31910;SDS011;18457;52.432;16.914;2023-03-11T08:55:24;15.10;;;6.80;;
31910;SDS011;18457;52.432;16.914;2023-03-11T08:57:57;10.90;;;6.30;;
31910;SDS011;18457;52.432;16.914;2023-03-11T09:00:30;12.40;;;6.40;;
31910;SDS011;18457;52.432;16.914;2023-03-11T09:03:03;12.80;;;7.70;;
31910;SDS011;18457;52.432;16.914;2023-03-11T09:05:35;13.50;;;6.00;;
31910;SDS011;18457;52.432;16.914;2023-03-11T09:08:08;10.20;;;6.00;;
